Time;durP1;ratioP1;P1;durP2;ratioP2;P2;SDS_P1;SDS_P2;PMS_P1;PMS_P2;Temp;Humidity;BMP_temperature;BMP_pressure;BME280_temperature;BME280_humidity;BME280_pressure;Samples;Min_cycle;Max_cycle;Signal;HPM_P1;HPM_P2
2022/02/04 00:25:15;;;;;;;9.60;7.20;;;8.40;1.00;;;;;;5131591;27;20508;-59
2022/02/04 00:27:40;;;;;;;8.47;6.80;;;8.40;1.00;;;;;;5124551;27;20739;-60
2022/02/04 00:30:22;;;;;;;14.10;7.37;;;8.40;1.00;;;;;;5130469;27;20521;-60
2022/02/04 00:32:50;;;;;;;9.07;7.53;;;8.40;1.00;;;;;;5128606;27;20688;-59
2022/02/04 00:36:05;;;;;;;8.80;6.47;;;8.50;1.00;;;;;;5110001;27;20934;-62
2022/02/04 00:38:18;;;;;;;7.77;6.97;;;8.50;1.00;;;;;;5116098;27;20454;-59
2022/02/04 00:40:48;;;;;;;7.10;6.40;;;;;;;;;;5130194;27;20417;-60
2022/02/04 00:43:15;;;;;;;12.00;9.10;;;8.40;1.00;;;;;;5128474;27;20446;-60
2022/02/04 00:45:54;;;;;;;9.77;7.83;;;8.40;1.00;;;;;;5128160;27;20562;-59
2022/02/04 01:28:21;;;;;;;9.13;7.10;;;8.70;1.00;;;;;;5126465;27;20792;-59
2022/02/04 01:30:47;;;;;;;11.80;8.60;;;8.70;1.00;;;;;;5127671;27;20448;-61
2022/02/04 01:33:13;;;;;;;11.13;8.70;;;8.80;1.00;;;;;;5126674;27;20452;-60
2022/02/04 01:35:39;;;;;;;9.70;7.83;;;8.80;1.00;;;;;;5129801;27;20269;-58
2022/02/04 01:38:04;;;;;;;9.67;8.17;;;5.70;1.00;;;;;;5128102;27;21231;-60
2022/02/04 01:40:30;;;;;;;11.67;7.80;;;8.80;1.00;;;;;;5130812;27;20181;-60
2022/02/04 01:42:55;;;;;;;13.47;10.00;;;8.80;1.00;;;;;;5126979;27;20227;-61
2022/02/04 01:45:21;;;;;;;15.57;8.60;;;8.90;1.00;;;;;;5128025;27;20225;-60
2022/02/04 01:47:56;;;;;;;9.87;8.70;;;8.90;1.00;;;;;;5125449;27;20286;-60
2022/02/04 01:50:23;;;;;;;13.43;11.50;;;8.90;1.00;;;;;;5127513;27;20184;-60
2022/02/04 01:52:49;;;;;;;16.47;11.53;;;9.00;1.00;;;;;;5129628;27;20508;-60
2022/02/04 01:55:15;;;;;;;13.50;10.40;;;9.10;1.00;;;;;;5129562;27;20475;-59
2022/02/04 01:57:41;;;;;;;14.00;10.77;;;9.10;1.00;;;;;;5126697;27;20185;-59
2022/02/04 02:00:08;;;;;;;15.23;11.80;;;9.10;1.00;;;;;;5128216;27;20427;-60
2022/02/04 02:02:33;;;;;;;14.27;11.00;;;9.10;1.00;;;;;;5128791;27;20587;-59
2022/02/04 02:04:59;;;;;;;15.17;12.07;;;9.10;1.00;;;;;;5126889;27;20859;-59
2022/02/04 02:07:27;;;;;;;16.10;11.77;;;9.30;1.00;;;;;;5128784;27;20330;-59
2022/02/04 02:12:20;;;;;;;16.60;12.43;;;9.10;1.00;;;;;;5126945;27;20473;-60
2022/02/04 02:14:54;;;;;;;18.40;12.10;;;9.10;1.00;;;;;;5126990;28;20173;-60
2022/02/04 02:34:28;;;;;;;14.90;11.40;;;9.00;1.00;;;;;;5124060;28;20421;-60
2022/02/04 02:45:46;;;;;;;15.43;11.47;;;8.90;1.00;;;;;;5062654;28;20986;-60
2022/02/04 02:53:44;;;;;;;13.80;9.93;;;8.80;1.00;;;;;;5107415;28;20459;-59
2022/02/04 02:56:57;;;;;;;12.97;10.37;;;8.80;1.00;;;;;;5105316;28;20436;-60
2022/02/04 02:59:17;;;;;;;14.70;10.47;;;8.80;1.00;;;;;;5103960;28;20494;-60
2022/02/04 03:01:49;;;;;;;12.70;10.37;;;8.80;1.00;;;;;;5106141;28;20439;-59
2022/02/04 03:04:16;;;;;;;12.30;8.93;;;8.80;1.00;;;;;;5105739;28;20447;-59
2022/02/04 03:06:47;;;;;;;14.27;10.87;;;8.80;1.00;;;;;;5101359;28;20435;-59
2022/02/04 03:09:15;;;;;;;12.23;10.43;;;8.80;1.00;;;;;;5111102;28;20520;-59
2022/02/04 03:11:41;;;;;;;12.87;9.13;;;8.90;1.00;;;;;;5110261;28;20455;-59
2022/02/04 03:14:07;;;;;;;11.87;9.00;;;8.80;1.00;;;;;;5109364;28;20427;-59
2022/02/04 03:16:33;;;;;;;10.83;8.90;;;;;;;;;;5105370;28;20205;-59
2022/02/04 03:19:01;;;;;;;13.23;9.70;;;8.80;1.00;;;;;;5108435;28;20422;-60
2022/02/04 03:21:31;;;;;;;11.77;8.97;;;8.80;1.00;;;;;;5105861;28;20932;-59
2022/02/04 03:24:03;;;;;;;12.43;9.43;;;8.70;1.00;;;;;;5111096;28;20915;-60
2022/02/04 03:26:42;;;;;;;13.40;10.43;;;8.60;1.00;;;;;;5106982;28;20481;-60
2022/02/04 03:29:07;;;;;;;14.47;9.10;;;8.90;1.00;;;;;;5109542;28;20431;-59
2022/02/04 03:31:40;;;;;;;11.60;9.03;;;8.60;1.00;;;;;;5104823;27;20460;-60
2022/02/04 03:34:06;;;;;;;14.63;8.90;;;8.60;1.00;;;;;;5108689;28;20615;-59
2022/02/04 03:36:31;;;;;;;11.00;8.10;;;8.60;1.00;;;;;;5109108;28;20446;-60
2022/02/04 03:38:57;;;;;;;10.20;8.50;;;8.60;1.00;;;;;;5109730;28;20193;-60
2022/02/04 03:41:23;;;;;;;10.73;8.57;;;8.60;1.00;;;;;;5108820;28;20186;-59
2022/02/04 03:43:48;;;;;;;10.87;8.47;;;8.60;1.00;;;;;;5108539;28;20184;-59
2022/02/04 03:46:14;;;;;;;15.40;9.27;;;8.60;1.00;;;;;;5122044;27;20739;-60
2022/02/04 03:48:39;;;;;;;12.73;8.37;;;8.70;1.00;;;;;;5129292;27;20173;-60
2022/02/04 03:51:05;;;;;;;11.60;9.57;;;8.60;1.00;;;;;;5129672;27;20173;-60
2022/02/04 03:53:30;;;;;;;11.93;8.47;;;8.60;1.00;;;;;;5129055;27;20738;-60
2022/02/04 03:55:56;;;;;;;10.03;8.20;;;8.70;1.00;;;;;;5129642;27;20181;-60
2022/02/04 03:58:22;;;;;;;12.30;8.63;;;8.70;1.00;;;;;;5130131;27;20516;-60
2022/02/04 04:00:47;;;;;;;11.63;8.70;;;8.70;1.00;;;;;;5130727;27;20174;-60
2022/02/04 04:03:13;;;;;;;10.80;8.40;;;8.60;1.00;;;;;;5131656;27;20181;-60
2022/02/04 04:05:44;;;;;;;12.73;9.30;;;8.60;1.00;;;;;;5129828;27;20230;-59
2022/02/04 04:08:10;;;;;;;11.90;8.90;;;8.60;1.00;;;;;;5130499;27;20177;-60
2022/02/04 04:10:40;;;;;;;11.07;7.63;;;8.70;1.00;;;;;;5131475;27;20439;-60
2022/02/04 04:13:07;;;;;;;9.63;7.70;;;8.60;1.00;;;;;;5108619;27;20201;-59
2022/02/04 04:15:33;;;;;;;9.90;7.90;;;8.70;1.00;;;;;;5129485;27;20931;-60
2022/02/04 04:17:58;;;;;;;12.60;8.17;;;8.60;1.00;;;;;;5110241;27;20453;-59
2022/02/04 04:20:26;;;;;;;8.70;7.27;;;8.50;1.00;;;;;;5129708;27;20356;-59
2022/02/04 04:22:53;;;;;;;9.57;7.70;;;8.50;1.00;;;;;;5131518;27;20186;-60
2022/02/04 04:25:19;;;;;;;9.70;7.43;;;8.50;1.00;;;;;;5130303;27;20537;-60
2022/02/04 04:27:46;;;;;;;11.03;8.07;;;8.60;1.00;;;;;;5126916;27;20523;-60
2022/02/04 04:30:14;;;;;;;8.40;6.40;;;8.60;1.00;;;;;;5127682;27;20447;-60
2022/02/04 04:32:41;;;;;;;9.77;7.60;;;8.50;1.00;;;;;;5128687;27;20475;-60
2022/02/04 04:35:11;;;;;;;9.57;7.00;;;8.50;1.00;;;;;;5108548;27;20446;-61
2022/02/04 04:37:41;;;;;;;11.17;7.87;;;8.50;1.00;;;;;;5102786;27;20431;-58
2022/02/04 04:42:52;;;;;;;9.57;7.30;;;8.40;1.00;;;;;;5125352;27;20446;-60
2022/02/04 05:31:19;;;;;;;10.30;7.03;;;8.30;1.00;;;;;;5129321;27;20413;-60
2022/02/04 05:33:44;;;;;;;12.90;7.50;;;8.30;1.00;;;;;;5127677;27;20529;-59
2022/02/04 05:36:11;;;;;;;10.13;7.20;;;8.40;1.00;;;;;;5132912;27;20192;-60
2022/02/04 05:38:38;;;;;;;7.07;5.90;;;8.50;1.00;;;;;;5129279;27;20178;-60
2022/02/04 05:41:05;;;;;;;11.50;7.67;;;8.50;1.00;;;;;;5129121;27;20435;-60
2022/02/04 05:43:34;;;;;;;9.73;7.13;;;8.50;1.00;;;;;;5129731;27;20792;-60
2022/02/04 05:46:04;;;;;;;6.90;6.20;;;8.40;1.00;;;;;;5126698;27;20519;-61
2022/02/04 05:48:32;;;;;;;7.83;5.53;;;8.40;1.00;;;;;;5128895;27;20446;-61
2022/02/04 05:53:34;;;;;;;10.10;6.40;;;8.30;1.00;;;;;;5129162;27;20511;-60
2022/02/04 06:01:56;;;;;;;8.47;6.03;;;8.30;1.00;;;;;;5015321;28;20459;-60
2022/02/04 06:04:36;;;;;;;9.90;5.80;;;8.40;1.00;;;;;;5014842;28;20439;-61
2022/02/04 06:23:12;;;;;;;4.00;3.30;;;8.60;1.00;;;;;;5127938;28;20449;-61
2022/02/04 06:25:39;;;;;;;4.70;3.47;;;8.60;1.00;;;;;;5108827;28;20443;-60
2022/02/04 06:28:05;;;;;;;3.63;3.27;;;8.50;1.00;;;;;;5126785;28;20478;-60
2022/02/04 06:30:33;;;;;;;5.17;3.90;;;;;;;;;;5127430;27;21091;-60
2022/02/04 06:32:59;;;;;;;3.77;2.97;;;8.40;1.00;;;;;;5124049;28;20229;-60
2022/02/04 06:35:25;;;;;;;3.17;2.83;;;8.40;1.00;;;;;;5110768;28;20534;-60
2022/02/04 06:37:50;;;;;;;3.90;3.50;;;8.30;1.00;;;;;;5127716;27;20529;-59
2022/02/04 06:40:16;;;;;;;5.83;3.90;;;8.40;1.00;;;;;;5128658;28;20243;-60
2022/02/04 06:42:41;;;;;;;4.80;3.30;;;8.30;1.00;;;;;;5130996;27;20181;-61
2022/02/04 06:45:08;;;;;;;2.97;2.67;;;8.40;1.00;;;;;;5113763;27;20677;-60
2022/02/04 06:47:34;;;;;;;4.90;3.17;;;8.40;1.00;;;;;;5133180;27;20253;-60
2022/02/04 06:50:00;;;;;;;3.70;3.30;;;8.30;1.00;;;;;;5132991;27;20439;-60
2022/02/04 06:52:26;;;;;;;3.30;2.90;;;8.40;1.00;;;;;;5129946;27;20493;-61
2022/02/04 06:54:51;;;;;;;6.00;3.50;;;8.40;1.00;;;;;;5133059;27;20439;-61
2022/02/04 06:57:17;;;;;;;4.20;3.47;;;8.40;1.00;;;;;;5132148;27;20230;-60
2022/02/04 06:59:45;;;;;;;5.23;3.30;;;8.40;1.00;;;;;;5131841;27;20177;-61
2022/02/04 07:02:10;;;;;;;4.30;3.33;;;8.30;1.00;;;;;;5129610;27;20217;-61
2022/02/04 07:04:36;;;;;;;4.27;3.80;;;8.40;1.00;;;;;;5132464;27;20484;-61
2022/02/04 07:07:02;;;;;;;4.00;3.17;;;7.80;1.00;;;;;;5132178;27;20240;-61
2022/02/04 07:17:36;;;;;;;4.27;2.97;;;8.60;1.00;;;;;;5130215;27;20466;-61
2022/02/04 07:20:02;;;;;;;3.80;2.97;;;8.60;1.00;;;;;;5131073;27;20938;-61
2022/02/04 07:22:31;;;;;;;5.83;3.10;;;8.70;1.00;;;;;;5132706;27;20436;-60
2022/02/04 07:24:59;;;;;;;3.30;2.97;;;8.80;1.00;;;;;;5132718;27;20522;-60
2022/02/04 07:27:29;;;;;;;4.67;3.40;;;8.70;1.00;;;;;;5130811;27;20777;-61
2022/02/04 07:29:55;;;;;;;5.20;3.13;;;8.70;1.00;;;;;;5127868;27;20438;-61
2022/02/04 07:42:56;;;;;;;3.30;2.70;;;8.80;1.00;;;;;;5131860;27;20798;-61
2022/02/04 07:45:22;;;;;;;3.57;2.80;;;8.80;1.00;;;;;;5130984;27;20429;-61
2022/02/04 07:47:48;;;;;;;2.87;2.53;;;8.80;1.00;;;;;;5132155;27;20193;-62
2022/02/04 07:50:14;;;;;;;2.73;2.53;;;8.80;1.00;;;;;;5132723;27;20181;-60
2022/02/04 07:52:39;;;;;;;3.87;3.10;;;8.80;1.00;;;;;;5132646;27;20489;-61
2022/02/04 07:55:05;;;;;;;2.53;2.33;;;8.80;1.00;;;;;;5131759;27;20313;-60
2022/02/04 07:57:33;;;;;;;3.13;2.83;;;8.80;1.00;;;;;;5126737;27;20527;-58
2022/02/04 08:00:03;;;;;;;3.50;3.20;;;8.80;1.00;;;;;;5130916;27;20414;-60
2022/02/04 08:02:28;;;;;;;3.50;2.83;;;8.80;1.00;;;;;;5129761;27;20439;-59
2022/02/04 08:04:58;;;;;;;3.00;2.53;;;8.70;1.00;;;;;;5131034;27;20942;-60
2022/02/04 08:07:28;;;;;;;4.23;3.10;;;8.90;1.00;;;;;;5130842;27;20178;-59
2022/02/04 08:10:07;;;;;;;4.13;2.83;;;9.00;1.00;;;;;;5130301;27;20530;-59
2022/02/04 08:12:48;;;;;;;4.47;3.37;;;9.10;1.00;;;;;;5132068;27;20463;-59
2022/02/04 08:15:41;;;;;;;3.87;3.20;;;9.20;1.00;;;;;;5131352;27;20438;-59
2022/02/04 08:20:55;;;;;;;3.10;2.80;;;9.00;1.00;;;;;;5131650;27;20431;-59
2022/02/04 08:26:14;;;;;;;3.40;2.77;;;8.80;1.00;;;;;;5130062;27;20453;-60
2022/02/04 08:34:14;;;;;;;3.57;2.73;;;9.00;1.00;;;;;;5131301;27;20466;-60
2022/02/04 08:46:33;;;;;;;3.90;3.23;;;9.10;1.00;;;;;;5128707;27;20753;-59
2022/02/04 08:48:20;;;;;;;6.60;2.83;;;9.20;1.00;;;;;;5091900;27;20510;-59
2022/02/04 08:53:59;;;;;;;3.20;2.90;;;9.40;1.00;;;;;;5129922;27;20520;-60
2022/02/04 08:59:57;;;;;;;3.00;2.67;;;9.70;1.00;;;;;;5120062;27;20437;-59
2022/02/04 09:02:12;;;;;;;3.87;2.90;;;;;;;;;;5130394;27;20413;-60
2022/02/04 09:04:44;;;;;;;3.60;2.73;;;9.70;1.00;;;;;;5130906;27;20439;-60
2022/02/04 09:07:12;;;;;;;2.97;2.57;;;9.70;1.00;;;;;;5130200;27;20495;-60
2022/02/04 09:22:51;;;;;;;2.87;2.60;;;10.10;1.00;;;;;;5131766;27;20430;-60
2022/02/04 09:25:17;;;;;;;3.50;2.90;;;10.00;1.00;;;;;;5130114;27;20595;-60
2022/02/04 09:27:43;;;;;;;6.30;3.17;;;10.10;1.00;;;;;;5128127;27;20975;-60
2022/02/04 09:30:14;;;;;;;3.60;2.70;;;10.10;1.00;;;;;;5130981;27;20788;-61
2022/02/04 09:32:41;;;;;;;3.07;2.77;;;10.10;1.00;;;;;;5133361;27;20469;-61
2022/02/04 09:35:16;;;;;;;4.50;3.10;;;10.30;1.00;;;;;;5130481;27;20480;-60
2022/02/04 09:37:42;;;;;;;4.50;3.60;;;10.20;1.00;;;;;;5111819;27;20453;-60
2022/02/04 09:40:11;;;;;;;3.23;2.90;;;10.40;1.00;;;;;;5132403;27;20454;-60
2022/02/04 09:42:40;;;;;;;3.97;3.57;;;10.50;1.00;;;;;;5130696;27;20438;-60
2022/02/04 09:45:07;;;;;;;3.13;2.83;;;10.50;1.00;;;;;;5124872;27;20437;-59
2022/02/04 09:47:35;;;;;;;3.70;2.60;;;10.50;1.00;;;;;;5128837;27;20439;-59
2022/02/04 09:50:11;;;;;;;16.93;3.17;;;10.40;1.00;;;;;;5110737;27;20438;-59
2022/02/04 10:17:11;;;;;;;4.47;3.40;;;10.10;1.00;;;;;;5130548;27;20452;-59
2022/02/04 10:22:19;;;;;;;3.10;2.40;;;10.40;1.00;;;;;;5130827;27;20885;-60
2022/02/04 10:25:00;;;;;;;3.70;2.40;;;10.40;1.00;;;;;;5112436;28;20441;-59
2022/02/04 10:27:29;;;;;;;4.10;3.17;;;10.40;1.00;;;;;;5129209;28;20443;-59
2022/02/04 10:30:03;;;;;;;2.37;1.80;;;10.40;1.00;;;;;;5130316;27;20872;-59
2022/02/04 10:32:31;;;;;;;3.10;2.10;;;10.40;1.00;;;;;;5112149;28;20523;-59
2022/02/04 10:35:16;;;;;;;2.90;2.60;;;10.40;1.00;;;;;;5112389;28;20431;-59
2022/02/04 10:41:02;;;;;;;3.37;2.47;;;10.50;1.00;;;;;;5130559;28;20458;-59
2022/02/04 10:54:09;;;;;;;2.97;2.23;;;10.50;1.00;;;;;;5127979;27;20509;-59
2022/02/04 10:56:56;;;;;;;2.77;2.23;;;10.80;1.00;;;;;;5129899;27;20487;-59
2022/02/04 10:59:31;;;;;;;3.00;1.97;;;10.90;1.00;;;;;;5130298;28;20424;-59
2022/02/04 11:02:13;;;;;;;3.50;1.93;;;10.90;1.00;;;;;;5130199;27;20431;-59
2022/02/04 11:04:54;;;;;;;1.90;1.80;;;10.90;1.00;;;;;;5130010;28;20446;-60
2022/02/04 11:07:49;;;;;;;2.80;2.00;;;11.20;1.00;;;;;;5129851;28;20800;-59
2022/02/04 11:10:51;;;;;;;2.43;1.50;;;11.20;1.00;;;;;;5127943;28;20454;-59
2022/02/04 11:35:21;;;;;;;3.30;1.30;;;10.70;1.00;;;;;;5133526;27;20422;-59
2022/02/04 11:55:14;;;;;;;4.53;2.90;;;11.40;1.00;;;;;;5132598;27;20806;-60
2022/02/04 11:57:57;;;;;;;4.17;2.40;;;11.60;1.00;;;;;;5114743;27;20431;-60
2022/02/04 12:00:26;;;;;;;3.60;1.40;;;11.40;1.00;;;;;;5132625;27;20534;-60
2022/02/04 12:02:54;;;;;;;1.40;1.30;;;11.30;1.00;;;;;;5132486;27;20431;-60
2022/02/04 12:05:19;;;;;;;1.03;0.93;;;11.40;1.00;;;;;;5132480;27;20514;-59
2022/02/04 12:07:48;;;;;;;2.13;0.93;;;11.40;1.00;;;;;;5132448;27;20775;-60
2022/02/04 12:10:13;;;;;;;1.10;1.03;;;11.60;1.00;;;;;;5132897;27;20181;-60
2022/02/04 12:15:29;;;;;;;1.37;1.00;;;11.70;1.00;;;;;;5132180;27;20180;-60
2022/02/04 12:17:55;;;;;;;1.10;1.00;;;11.60;1.00;;;;;;5112132;27;20466;-60
2022/02/04 12:23:26;;;;;;;1.33;1.23;;;11.40;1.00;;;;;;5131454;27;20442;-60
2022/02/04 12:25:53;;;;;;;1.23;0.97;;;11.40;1.00;;;;;;5130018;27;20427;-60
2022/02/04 12:28:51;;;;;;;1.13;1.00;;;11.60;1.00;;;;;;5128476;27;20431;-60
2022/02/04 12:31:19;;;;;;;0.83;0.80;;;;;;;;;;5130354;27;20439;-60
2022/02/04 12:33:47;;;;;;;1.20;1.07;;;11.50;1.00;;;;;;5130469;27;20746;-60
2022/02/04 12:36:15;;;;;;;1.30;1.20;;;11.00;1.00;;;;;;5129763;27;20826;-60
2022/02/04 12:38:42;;;;;;;2.10;0.90;;;10.90;1.00;;;;;;5131760;27;20474;-60
2022/02/04 12:41:07;;;;;;;1.37;1.20;;;10.90;1.00;;;;;;5131476;27;20439;-60
2022/02/04 12:43:37;;;;;;;1.40;1.13;;;10.90;1.00;;;;;;5129953;27;20450;-60
2022/02/04 12:46:04;;;;;;;1.53;0.80;;;10.70;1.00;;;;;;5131939;27;20221;-59
2022/02/04 12:48:29;;;;;;;1.60;1.17;;;10.60;1.00;;;;;;5111359;27;20429;-60
2022/02/04 12:50:56;;;;;;;0.80;0.80;;;10.60;1.00;;;;;;5113057;27;20476;-60
2022/02/04 12:53:27;;;;;;;1.70;1.20;;;10.50;1.00;;;;;;5132123;27;20253;-59
2022/02/04 13:02:04;;;;;;;0.80;0.80;;;10.90;1.00;;;;;;5130883;27;20543;-60
2022/02/04 13:07:41;;;;;;;3.60;1.10;;;12.10;1.00;;;;;;5131583;27;20490;-60
2022/02/04 13:10:07;;;;;;;2.00;0.90;;;11.00;1.00;;;;;;5129430;27;20474;-59
2022/02/04 13:12:55;;;;;;;1.63;0.90;;;11.00;1.00;;;;;;5130319;27;20433;-60
2022/02/04 13:15:21;;;;;;;0.83;0.70;;;11.00;1.00;;;;;;5131758;27;20459;-60
2022/02/04 13:17:47;;;;;;;0.93;0.80;;;11.00;1.00;;;;;;5129143;27;20435;-59
2022/02/04 13:20:21;;;;;;;1.20;1.00;;;11.10;1.00;;;;;;5132264;27;20660;-59
2022/02/04 13:22:48;;;;;;;0.87;0.80;;;11.20;1.00;;;;;;5129483;27;20447;-60
2022/02/04 13:25:20;;;;;;;0.87;0.87;;;11.10;1.00;;;;;;5112163;27;20438;-59
2022/02/04 13:28:22;;;;;;;0.87;0.70;;;11.00;1.00;;;;;;5129533;27;20442;-59
2022/02/04 13:31:01;;;;;;;1.17;0.80;;;10.90;1.00;;;;;;5046984;28;20851;-59
2022/02/04 13:33:49;;;;;;;1.90;0.73;;;11.10;1.00;;;;;;5122211;27;20443;-60
2022/02/04 13:36:27;;;;;;;1.30;0.80;;;11.20;1.00;;;;;;5128798;27;20504;-60
2022/02/04 13:42:06;;;;;;;0.67;0.67;;;11.00;1.00;;;;;;5126654;27;20507;-60
2022/02/04 13:46:57;;;;;;;0.90;0.73;;;11.00;1.00;;;;;;5127158;27;20532;-59
2022/02/04 13:49:44;;;;;;;0.93;0.93;;;10.90;1.00;;;;;;5128596;27;20445;-60
2022/02/04 13:52:15;;;;;;;1.07;0.70;;;11.00;1.00;;;;;;5125583;27;20466;-61
2022/02/04 13:54:59;;;;;;;2.40;0.90;;;11.10;1.00;;;;;;5129386;27;20722;-59
2022/02/04 13:58:09;;;;;;;0.90;0.50;;;11.00;1.00;;;;;;5125646;27;20592;-59
2022/02/04 14:02:52;;;;;;;0.63;0.63;;;11.00;1.00;;;;;;5128325;27;20437;-59
2022/02/04 14:05:31;;;;;;;1.10;0.73;;;11.00;1.00;;;;;;5109886;28;20447;-59
2022/02/04 14:08:09;;;;;;;0.80;0.80;;;11.10;1.00;;;;;;5128534;27;20932;-60
2022/02/04 14:10:47;;;;;;;1.13;0.80;;;11.00;1.00;;;;;;5126720;27;20417;-60
2022/02/04 14:13:13;;;;;;;2.50;0.70;;;10.80;1.00;;;;;;5130320;27;20818;-60
2022/02/04 14:15:43;;;;;;;0.77;0.70;;;10.70;1.00;;;;;;5123475;27;20446;-59
2022/02/04 14:18:11;;;;;;;0.73;0.70;;;10.70;1.00;;;;;;5126687;28;20437;-60
2022/02/04 14:20:40;;;;;;;1.03;0.70;;;10.70;1.00;;;;;;5127290;27;20834;-60
2022/02/04 14:23:08;;;;;;;1.40;1.10;;;10.60;1.00;;;;;;5129952;28;20436;-60
2022/02/04 14:25:49;;;;;;;1.10;1.00;;;10.50;1.00;;;;;;5130453;28;20439;-60
2022/02/04 14:28:18;;;;;;;0.70;0.60;;;10.70;1.00;;;;;;5126265;27;20480;-60
2022/02/04 14:30:44;;;;;;;2.00;0.77;;;10.80;1.00;;;;;;5128919;27;20439;-65
2022/02/04 14:33:39;;;;;;;0.90;0.80;;;11.10;1.00;;;;;;5126378;28;20809;-60
2022/02/04 14:36:06;;;;;;;1.13;0.83;;;11.00;1.00;;;;;;5128931;28;20450;-60
2022/02/04 14:49:59;;;;;;;1.70;1.10;;;11.60;1.00;;;;;;5126192;27;20813;-61
2022/02/04 14:58:37;;;;;;;1.13;1.03;;;11.60;1.00;;;;;;5128412;28;20435;-60
2022/02/04 15:05:42;;;;;;;0.80;0.70;;;11.00;1.00;;;;;;5125464;27;20456;-60
2022/02/04 15:08:12;;;;;;;0.80;0.80;;;10.80;1.00;;;;;;5131308;27;20792;-59
2022/02/04 15:10:39;;;;;;;0.77;0.70;;;10.70;1.00;;;;;;5132361;27;20435;-59
2022/02/04 15:13:12;;;;;;;2.20;0.80;;;10.60;1.00;;;;;;5129197;27;20514;-60
2022/02/04 15:15:38;;;;;;;1.00;0.90;;;10.60;1.00;;;;;;5130861;27;20770;-60
2022/02/04 15:18:04;;;;;;;3.70;0.70;;;10.70;1.00;;;;;;5131411;27;20987;-59
2022/02/04 15:20:29;;;;;;;1.40;1.30;;;10.60;1.00;;;;;;5128348;27;20554;-59
2022/02/04 15:22:56;;;;;;;1.97;0.70;;;10.60;1.00;;;;;;5133100;27;20193;-59
2022/02/04 15:25:23;;;;;;;1.13;0.90;;;10.70;1.00;;;;;;5130219;27;20630;-59
2022/02/04 15:30:38;;;;;;;1.50;1.23;;;10.60;1.00;;;;;;5130044;27;20505;-59
2022/02/04 15:33:03;;;;;;;1.03;0.93;;;10.60;1.00;;;;;;5127890;27;20989;-60
2022/02/04 15:35:31;;;;;;;1.10;1.00;;;10.60;1.00;;;;;;5130706;27;20513;-60
2022/02/04 15:37:56;;;;;;;1.33;1.23;;;10.60;1.00;;;;;;5126994;27;20174;-60
2022/02/04 15:40:22;;;;;;;1.27;1.00;;;10.40;1.00;;;;;;5132821;27;20443;-60
2022/02/04 15:43:03;;;;;;;1.90;1.40;;;10.50;1.00;;;;;;5125268;27;20264;-60
2022/02/04 15:50:42;;;;;;;1.20;1.10;;;10.50;1.00;;;;;;5130504;27;20982;-60
2022/02/04 16:06:21;;;;;;;1.30;1.20;;;10.50;1.00;;;;;;5130076;27;20776;-59
2022/02/04 16:08:50;;;;;;;1.43;1.33;;;10.40;1.00;;;;;;5129231;27;20450;-60
2022/02/04 16:11:29;;;;;;;2.00;1.33;;;10.50;1.00;;;;;;5122789;27;20795;-60
2022/02/04 16:14:06;;;;;;;1.33;1.23;;;;;;;;;;5129695;27;20466;-60
2022/02/04 16:16:37;;;;;;;1.80;1.40;;;10.60;1.00;;;;;;5122156;27;20514;-59
2022/02/04 16:19:07;;;;;;;1.20;1.10;;;10.60;1.00;;;;;;5123097;27;20770;-61
2022/02/04 16:21:45;;;;;;;1.17;0.90;;;10.50;1.00;;;;;;5129053;27;20814;-59
2022/02/04 16:29:21;;;;;;;1.90;1.33;;;10.20;1.00;;;;;;5128119;27;20251;-59
2022/02/04 16:31:47;;;;;;;3.43;1.30;;;10.20;1.00;;;;;;5115620;27;20436;-60
2022/02/04 16:34:13;;;;;;;3.97;2.97;;;10.10;1.00;;;;;;5127087;27;20483;-59
2022/02/04 16:36:44;;;;;;;1.70;1.20;;;10.10;1.00;;;;;;5129674;27;20842;-59
2022/02/04 16:39:12;;;;;;;1.90;1.67;;;10.00;1.00;;;;;;5126969;27;20182;-60
2022/02/04 16:42:03;;;;;;;1.83;1.53;;;10.00;1.00;;;;;;5130464;27;20453;-59
2022/02/04 16:44:31;;;;;;;1.27;1.13;;;10.10;1.00;;;;;;5125003;27;20574;-60
2022/02/04 16:47:00;;;;;;;2.60;2.10;;;10.10;1.00;;;;;;5125925;27;20477;-60
2022/02/04 16:49:26;;;;;;;3.37;2.17;;;10.30;1.00;;;;;;5128558;27;20889;-60
2022/02/04 16:51:51;;;;;;;1.70;1.10;;;10.20;1.00;;;;;;5129834;27;20542;-60
2022/02/04 16:54:18;;;;;;;1.37;1.27;;;10.30;1.00;;;;;;5131133;27;20557;-59
2022/02/04 16:56:44;;;;;;;4.07;1.30;;;10.30;1.00;;;;;;5131822;27;20184;-59
2022/02/04 16:59:10;;;;;;;2.60;1.47;;;10.40;1.00;;;;;;5129572;27;20435;-60
2022/02/04 17:01:36;;;;;;;1.60;1.50;;;10.30;1.00;;;;;;5131627;27;20431;-59
2022/02/04 17:04:03;;;;;;;1.93;1.50;;;10.30;1.00;;;;;;5128661;27;20186;-59
2022/02/04 17:06:34;;;;;;;1.73;1.30;;;10.50;1.00;;;;;;5132286;27;20184;-60
2022/02/04 17:09:20;;;;;;;1.90;1.27;;;10.50;1.00;;;;;;5113275;27;20769;-60
2022/02/04 17:11:49;;;;;;;1.30;0.93;;;10.60;1.00;;;;;;5131071;27;20443;-59
2022/02/04 17:14:15;;;;;;;1.20;1.10;;;10.50;1.00;;;;;;5131992;27;20450;-59
2022/02/04 17:16:42;;;;;;;1.50;1.40;;;10.50;1.00;;;;;;5129137;27;20521;-60
2022/02/04 17:19:21;;;;;;;1.37;1.10;;;10.40;1.00;;;;;;5132885;27;20471;-60
2022/02/04 17:21:49;;;;;;;1.67;1.40;;;10.40;1.00;;;;;;5129256;27;20533;-59
2022/02/04 17:24:15;;;;;;;1.30;1.10;;;10.40;1.00;;;;;;5131933;27;20431;-59
2022/02/04 17:26:42;;;;;;;2.30;1.10;;;;;;;;;;5130602;27;20455;-59
2022/02/04 17:29:09;;;;;;;1.50;0.90;;;10.40;1.00;;;;;;5130851;27;20457;-59
2022/02/04 17:31:35;;;;;;;1.83;1.30;;;10.40;1.00;;;;;;5131574;27;20866;-59
2022/02/04 17:34:01;;;;;;;4.30;0.93;;;10.40;1.00;;;;;;5130073;27;20458;-59
2022/02/04 17:36:30;;;;;;;1.03;0.67;;;10.40;1.00;;;;;;5134876;27;20211;-59
2022/02/04 17:38:57;;;;;;;1.53;1.30;;;10.30;1.00;;;;;;5129320;27;20438;-59
2022/02/04 17:41:22;;;;;;;1.30;0.80;;;10.30;1.00;;;;;;5131249;27;20900;-59
2022/02/04 17:43:48;;;;;;;1.90;1.30;;;10.30;1.00;;;;;;5113131;27;20483;-59
2022/02/04 17:46:19;;;;;;;1.13;0.83;;;10.30;1.00;;;;;;5129811;27;20225;-59
2022/02/04 17:48:53;;;;;;;1.80;1.03;;;10.30;1.00;;;;;;5131270;27;21063;-59
2022/02/04 17:53:51;;;;;;;1.07;0.70;;;10.20;1.00;;;;;;5131422;27;21084;-59
2022/02/04 17:56:31;;;;;;;2.77;1.20;;;;;;;;;;5128678;27;20968;-59
2022/02/04 17:59:51;;;;;;;0.87;0.80;;;10.00;1.00;;;;;;5132241;27;20491;-59
2022/02/04 18:07:10;;;;;;;1.20;1.10;;;10.00;1.00;;;;;;5131558;27;20989;-59
2022/02/04 18:09:37;;;;;;;1.93;1.00;;;10.10;1.00;;;;;;5129543;27;20438;-59
2022/02/04 18:12:05;;;;;;;0.93;0.87;;;10.00;1.00;;;;;;5133145;27;20439;-60
2022/02/04 18:14:32;;;;;;;0.93;0.87;;;10.10;1.00;;;;;;5127671;27;20447;-59
2022/02/04 18:16:57;;;;;;;1.13;0.80;;;10.10;1.00;;;;;;5130924;27;20423;-59
2022/02/04 18:19:23;;;;;;;0.90;0.90;;;10.10;1.00;;;;;;5129106;28;20435;-59
2022/02/04 18:21:49;;;;;;;0.80;0.80;;;10.10;1.00;;;;;;5111503;28;20185;-59
2022/02/04 18:24:15;;;;;;;1.57;1.03;;;10.10;1.00;;;;;;5130833;28;20435;-59
2022/02/04 18:26:41;;;;;;;1.43;0.80;;;10.00;1.00;;;;;;5109687;28;20428;-60
2022/02/04 18:29:06;;;;;;;1.23;1.00;;;10.00;1.00;;;;;;5130962;28;20572;-59
2022/02/04 18:31:33;;;;;;;1.73;1.07;;;10.00;1.00;;;;;;5128753;28;20185;-59
2022/02/04 18:34:04;;;;;;;1.47;1.20;;;10.00;1.00;;;;;;5129375;27;20197;-59
2022/02/04 18:36:30;;;;;;;0.80;0.80;;;10.00;1.00;;;;;;5127289;27;20498;-58
2022/02/04 18:39:12;;;;;;;1.10;1.00;;;10.10;1.00;;;;;;5114016;27;20441;-59
2022/02/04 18:44:13;;;;;;;1.00;0.80;;;10.00;1.00;;;;;;5132792;27;20413;-59
2022/02/04 18:49:27;;;;;;;2.17;1.93;;;9.90;1.00;;;;;;5132786;27;20950;-59
2022/02/04 18:59:24;;;;;;;0.83;0.83;;;9.80;1.00;;;;;;5132882;27;20510;-59
2022/02/04 19:01:49;;;;;;;3.30;2.77;;;9.80;1.00;;;;;;5132980;27;20817;-59
2022/02/04 19:04:19;;;;;;;1.77;1.20;;;9.80;1.00;;;;;;5134827;27;20435;-59
2022/02/04 19:06:51;;;;;;;1.20;1.10;;;9.80;1.00;;;;;;5132508;27;20258;-59
2022/02/04 19:09:17;;;;;;;1.10;1.00;;;9.80;1.00;;;;;;5134385;27;20435;-59
2022/02/04 19:11:48;;;;;;;1.07;0.70;;;9.90;1.00;;;;;;5132364;27;20413;-59
2022/02/04 19:14:31;;;;;;;1.00;0.90;;;;;;;;;;5116393;27;20288;-59
2022/02/04 19:17:07;;;;;;;1.30;0.80;;;;;;;;;;5132257;27;20843;-59
2022/02/04 19:20:12;;;;;;;0.93;0.73;;;9.80;1.00;;;;;;5133543;27;20423;-59
2022/02/04 19:22:35;;;;;;;1.20;0.90;;;9.70;1.00;;;;;;5129391;27;20431;-60
2022/02/04 19:25:05;;;;;;;0.63;0.63;;;9.80;1.00;;;;;;5134248;27;20409;-59
2022/02/04 19:27:30;;;;;;;2.10;1.63;;;9.80;1.00;;;;;;5133968;27;20409;-59
2022/02/04 19:29:56;;;;;;;0.90;0.90;;;;;;;;;;5134076;27;21100;-59
2022/02/04 19:32:23;;;;;;;1.20;1.10;;;9.70;1.00;;;;;;5133533;27;20453;-59
2022/02/04 19:34:49;;;;;;;1.10;1.00;;;9.80;1.00;;;;;;5133690;27;20784;-59
2022/02/04 19:37:15;;;;;;;1.90;1.20;;;9.80;1.00;;;;;;5133231;27;20429;-60
2022/02/04 19:39:44;;;;;;;1.50;1.17;;;9.80;1.00;;;;;;5133812;27;20433;-59
2022/02/04 19:42:22;;;;;;;1.20;0.90;;;9.80;1.00;;;;;;5115126;27;20635;-59
2022/02/04 19:45:14;;;;;;;1.30;1.03;;;9.70;1.00;;;;;;5133523;27;20466;-59
2022/02/04 19:53:06;;;;;;;3.90;3.47;;;9.70;1.00;;;;;;5133713;27;20465;-59
2022/02/04 20:25:40;;;;;;;1.57;0.90;;;10.00;1.00;;;;;;5132916;27;20503;-59
2022/02/04 20:28:08;;;;;;;2.00;1.10;;;;;;;;;;5132970;27;20422;-60
2022/02/04 20:30:35;;;;;;;1.43;0.80;;;9.90;1.00;;;;;;5133033;27;20687;-60
2022/02/04 20:33:00;;;;;;;1.00;0.90;;;9.90;1.00;;;;;;5132630;27;20469;-59
2022/02/04 20:35:26;;;;;;;1.00;0.80;;;10.00;1.00;;;;;;5132501;27;20431;-60